Time;durP1;ratioP1;P1;durP2;ratioP2;P2;SDS_P1;SDS_P2;PMS_P1;PMS_P2;Temp;Humidity;BMP_temperature;BMP_pressure;BME280_temperature;BME280_humidity;BME280_pressure;Samples;Min_cycle;Max_cycle;Signal;HPM_P1;HPM_P2
2023/09/03 00:00:46;;;;;;;6.50;5.90;;;;;;;12.53;82.36;101094.16;105459;278;38967;-72
2023/09/03 00:03:40;;;;;;;9.50;5.80;;;;;;;12.50;82.37;101094.98;105463;278;38531;-71
2023/09/03 00:06:14;;;;;;;8.00;6.00;;;;;;;12.46;82.41;101091.27;105439;278;39120;-71
2023/09/03 00:08:49;;;;;;;9.00;6.10;;;;;;;12.43;82.43;101091.36;105921;278;38875;-71
2023/09/03 00:11:23;;;;;;;10.30;5.90;;;;;;;12.40;82.56;101091.81;105949;278;39272;-72
2023/09/03 00:13:57;;;;;;;8.60;6.50;;;;;;;12.37;82.61;101093.13;105451;278;38227;-72
2023/09/03 00:16:31;;;;;;;8.10;7.10;;;;;;;12.36;82.59;101094.20;105782;278;171996;-72
2023/09/03 00:19:05;;;;;;;10.20;7.00;;;;;;;12.33;82.77;101099.41;105910;278;38900;-72
2023/09/03 00:21:39;;;;;;;10.60;6.80;;;;;;;12.30;82.59;101104.95;105483;278;38272;-72
2023/09/03 00:24:13;;;;;;;7.50;6.80;;;;;;;12.27;82.67;101103.11;105450;278;38486;-72
2023/09/03 00:26:47;;;;;;;10.60;7.20;;;;;;;12.26;82.85;101100.17;105252;283;38503;-72
2023/09/03 00:29:21;;;;;;;9.10;7.10;;;;;;;12.25;82.93;101101.41;105465;278;39549;-71
2023/09/03 00:31:56;;;;;;;10.50;7.40;;;;;;;12.26;83.08;101099.28;105901;278;39486;-71
2023/09/03 00:34:32;;;;;;;11.00;8.00;;;;;;;12.28;83.28;101099.23;105463;278;39439;-71
2023/09/03 00:37:06;;;;;;;11.60;8.50;;;;;;;12.30;83.43;101097.75;105453;278;38386;-71
2023/09/03 00:39:40;;;;;;;11.90;8.40;;;;;;;12.31;83.61;101097.89;105897;278;38277;-71
2023/09/03 00:42:14;;;;;;;11.10;7.80;;;;;;;12.31;83.67;101098.42;105914;278;39734;-71
2023/09/03 00:44:48;;;;;;;11.10;7.70;;;;;;;12.28;83.56;101098.51;105468;278;38705;-72
2023/09/03 00:47:25;;;;;;;9.80;7.70;;;;;;;12.26;83.55;101099.98;105801;278;174481;-72
2023/09/03 00:49:59;;;;;;;8.90;7.40;;;;;;;12.25;83.48;101103.35;105463;278;39948;-72
2023/09/03 00:52:33;;;;;;;9.40;7.90;;;;;;;12.24;83.60;101101.98;105492;278;38608;-72
2023/09/03 00:55:08;;;;;;;10.90;8.60;;;;;;;12.24;83.61;101099.37;105491;278;38723;-72
2023/09/03 00:57:42;;;;;;;9.20;8.10;;;;;;;12.23;83.71;101097.48;105238;279;38395;-71
2023/09/03 01:00:18;;;;;;;10.90;8.40;;;;;;;12.23;83.86;101097.98;105502;278;38261;-71
2023/09/03 01:02:52;;;;;;;9.60;8.20;;;;;;;12.24;84.06;101098.66;105436;278;38522;-71
2023/09/03 01:05:25;;;;;;;10.50;7.80;;;;;;;12.25;84.05;101095.64;105512;278;38453;-71
2023/09/03 01:08:00;;;;;;;9.10;7.90;;;;;;;12.25;84.03;101098.61;105463;285;39831;-71
2023/09/03 01:10:40;;;;;;;9.50;7.90;;;;;;;12.24;83.87;101097.42;105513;278;38883;-71
2023/09/03 01:13:18;;;;;;;11.00;7.50;;;;;;;12.20;83.73;101093.90;105481;266;38806;-71
2023/09/03 01:15:53;;;;;;;10.30;7.80;;;;;;;12.15;83.54;101087.94;105935;278;38481;-71
2023/09/03 01:18:27;;;;;;;8.30;7.50;;;;;;;12.11;83.54;101091.20;105454;278;38266;-71
2023/09/03 01:21:27;;;;;;;7.90;7.00;;;;;;;12.10;83.60;101096.16;105886;278;39996;-71
2023/09/03 01:24:10;;;;;;;13.50;8.20;;;;;;;12.08;83.80;101093.58;105467;278;39990;-72
2023/09/03 01:26:57;;;;;;;9.50;7.90;;;;;;;12.08;83.79;101088.86;105491;278;39388;-72
2023/09/03 01:29:31;;;;;;;13.50;9.00;;;;;;;12.07;83.92;101096.05;105946;278;38590;-72
2023/09/03 01:32:05;;;;;;;11.60;8.60;;;;;;;12.06;84.01;101096.27;105493;278;39660;-72
2023/09/03 01:34:39;;;;;;;9.80;7.90;;;;;;;12.05;84.17;101096.49;105237;278;39945;-71
2023/09/03 01:37:13;;;;;;;11.00;8.10;;;;;;;12.03;84.17;101097.40;105890;278;38715;-71
2023/09/03 01:39:47;;;;;;;9.70;8.20;;;;;;;12.02;84.25;101099.72;105484;278;39661;-71
2023/09/03 01:42:22;;;;;;;9.90;8.30;;;;;;;12.01;84.17;101098.90;105893;278;38164;-71
2023/09/03 01:44:56;;;;;;;11.30;8.70;;;;;;;12.01;84.31;101099.77;105466;278;38816;-72
2023/09/03 01:47:34;;;;;;;9.10;8.20;;;;;;;12.00;84.33;101095.95;105450;278;38478;-71
2023/09/03 01:50:15;;;;;;;10.60;8.50;;;;;;;11.98;84.24;101097.76;105459;278;38272;-71
2023/09/03 01:52:53;;;;;;;9.30;8.10;;;;;;;11.97;84.31;101099.20;105446;278;39402;-71
2023/09/03 01:55:27;;;;;;;9.80;8.50;;;;;;;11.93;83.94;101094.41;105876;278;39154;-71
2023/09/03 01:58:03;;;;;;;10.40;9.30;;;;;;;11.89;83.77;101091.58;105943;278;39412;-71
2023/09/03 02:00:37;;;;;;;12.10;9.60;;;;;;;11.85;83.84;101088.19;105457;278;38302;-71
2023/09/03 02:03:11;;;;;;;10.10;8.70;;;;;;;11.86;84.29;101089.76;105490;278;38745;-71
2023/09/03 02:05:45;;;;;;;10.80;9.30;;;;;;;11.85;84.22;101088.20;105465;278;38527;-71
2023/09/03 02:08:19;;;;;;;11.30;9.20;;;;;;;11.83;84.28;101083.72;105446;278;38852;-71
2023/09/03 02:10:53;;;;;;;12.80;9.40;;;;;;;11.78;84.11;101077.02;104620;278;898572;-72
2023/09/03 02:13:27;;;;;;;10.00;8.70;;;;;;;11.76;84.39;101072.53;105919;278;38526;-72
2023/09/03 02:16:02;;;;;;;9.60;8.70;;;;;;;11.76;84.36;101071.52;105465;278;38358;-72
2023/09/03 02:18:36;;;;;;;11.70;8.80;;;;;;;11.76;84.41;101068.71;105482;278;38291;-71
2023/09/03 02:21:10;;;;;;;11.40;8.80;;;;;;;11.74;84.54;101070.50;105879;278;38496;-71
2023/09/03 02:23:44;;;;;;;9.60;8.10;;;;;;;11.73;84.58;101067.77;105469;278;39028;-71
2023/09/03 02:26:18;;;;;;;11.10;9.10;;;;;;;11.72;84.38;101069.88;105460;285;38272;-72
2023/09/03 02:28:52;;;;;;;11.50;8.50;;;;;;;11.71;84.46;101073.42;105469;278;38990;-72
2023/09/03 02:31:26;;;;;;;10.70;8.60;;;;;;;11.70;84.47;101070.10;105456;278;39835;-72
2023/09/03 02:34:00;;;;;;;10.40;7.70;;;;;;;11.68;84.21;101069.33;105297;280;38718;-72
2023/09/03 02:36:35;;;;;;;11.50;8.30;;;;;;;11.63;84.13;101062.13;105934;278;38746;-72
2023/09/03 02:39:09;;;;;;;9.80;8.30;;;;;;;11.59;84.28;101061.89;105917;278;39396;-72
2023/09/03 02:41:43;;;;;;;8.80;7.90;;;;;;;11.55;84.11;101060.45;105272;278;41476;-72
2023/09/03 02:44:17;;;;;;;9.50;8.20;;;;;;;11.51;84.22;101056.73;105474;278;38422;-72
2023/09/03 02:46:51;;;;;;;12.40;8.60;;;;;;;11.50;84.60;101049.41;105287;279;38418;-72
2023/09/03 02:49:25;;;;;;;13.70;9.00;;;;;;;11.48;84.66;101044.61;105486;278;38587;-71
2023/09/03 02:51:59;;;;;;;10.80;8.80;;;;;;;11.47;84.98;101041.65;105915;278;39010;-71
2023/09/03 02:54:33;;;;;;;11.90;8.70;;;;;;;11.47;85.15;101039.73;105899;278;38568;-71
2023/09/03 02:57:07;;;;;;;10.80;8.40;;;;;;;11.48;85.24;101038.84;105421;278;39756;-71
2023/09/03 02:59:44;;;;;;;12.10;9.20;;;;;;;11.47;85.32;101036.23;105911;278;39828;-71
2023/09/03 03:02:18;;;;;;;10.20;8.40;;;;;;;11.46;85.36;101035.21;105480;278;39384;-71
2023/09/03 03:04:52;;;;;;;10.80;9.00;;;;;;;11.47;85.51;101040.45;105911;278;39910;-71
2023/09/03 03:07:27;;;;;;;11.20;9.20;;;;;;;11.49;85.55;101039.88;105925;278;38369;-71
2023/09/03 03:10:01;;;;;;;16.90;10.00;;;;;;;11.49;85.66;101039.31;105259;279;38688;-71
2023/09/03 03:12:35;;;;;;;13.00;9.30;;;;;;;11.49;85.41;101035.14;105458;278;38455;-71
2023/09/03 03:15:10;;;;;;;10.40;9.30;;;;;;;11.47;85.38;101038.34;105460;278;38370;-71
2023/09/03 03:17:44;;;;;;;11.70;9.60;;;;;;;11.47;85.42;101048.98;105921;278;38383;-71
2023/09/03 03:20:18;;;;;;;13.80;9.70;;;;;;;11.44;84.93;101047.35;105459;278;38246;-71
2023/09/03 03:22:52;;;;;;;12.90;9.50;;;;;;;11.38;85.09;101050.13;105149;279;174541;-71
2023/09/03 03:25:28;;;;;;;10.40;9.00;;;;;;;11.37;85.31;101048.25;104974;278;656112;-71
2023/09/03 03:28:02;;;;;;;13.10;9.80;;;;;;;11.36;85.27;101048.98;105453;278;38306;-71
2023/09/03 03:30:36;;;;;;;10.90;9.80;;;;;;;11.34;85.07;101050.93;105483;278;38497;-71
2023/09/03 03:33:10;;;;;;;13.50;9.10;;;;;;;11.33;85.16;101049.09;105932;278;38719;-71
2023/09/03 03:35:44;;;;;;;11.20;9.50;;;;;;;11.30;85.23;101049.52;105916;278;39462;-71
2023/09/03 03:38:18;;;;;;;11.00;8.60;;;;;;;11.29;85.18;101044.11;105938;278;38489;-71
2023/09/03 03:40:52;;;;;;;11.70;9.60;;;;;;;11.27;85.22;101041.20;105138;281;38396;-71
2023/09/03 03:43:27;;;;;;;11.40;9.70;;;;;;;11.26;85.52;101041.77;105334;278;174529;-71
2023/09/03 03:46:02;;;;;;;11.10;8.70;;;;;;;11.26;85.96;101044.89;105933;278;38630;-71
2023/09/03 03:48:36;;;;;;;10.60;9.00;;;;;;;11.27;85.95;101044.20;105453;278;38667;-71
2023/09/03 03:51:10;;;;;;;10.70;8.70;;;;;;;11.27;86.07;101049.06;105290;278;38278;-72
2023/09/03 03:53:44;;;;;;;10.90;8.70;;;;;;;11.28;85.94;101046.41;105520;278;38428;-71
2023/09/03 03:56:18;;;;;;;9.30;8.40;;;;;;;11.28;86.04;101045.21;105444;278;38272;-71
2023/09/03 03:58:52;;;;;;;12.10;8.30;;;;;;;11.30;86.07;101044.43;105437;278;39838;-71
2023/09/03 04:01:26;;;;;;;9.60;8.40;;;;;;;11.33;86.16;101042.08;105510;278;38266;-72
2023/09/03 04:04:00;;;;;;;10.10;8.70;;;;;;;11.34;85.68;101044.67;105285;278;38878;-72
2023/09/03 04:06:35;;;;;;;10.80;8.40;;;;;;;11.28;85.48;101047.46;105463;278;38287;-71
2023/09/03 04:09:09;;;;;;;9.50;8.50;;;;;;;11.29;86.00;101049.02;105962;278;38278;-71
2023/09/03 04:11:43;;;;;;;9.00;8.10;;;;;;;11.33;85.98;101055.71;105926;278;39517;-71
2023/09/03 04:14:17;;;;;;;10.70;8.30;;;;;;;11.36;86.38;101066.94;105455;278;38223;-71
2023/09/03 04:16:51;;;;;;;10.80;9.00;;;;;;;11.40;86.34;101074.36;105429;278;38751;-71
2023/09/03 04:19:25;;;;;;;10.90;8.40;;;;;;;11.42;86.19;101075.54;105426;278;38887;-71
2023/09/03 04:21:59;;;;;;;10.10;8.40;;;;;;;11.39;85.96;101078.25;105447;278;38821;-71
2023/09/03 04:24:32;;;;;;;13.90;8.20;;;;;;;11.41;86.22;101080.09;105455;286;38872;-71
2023/09/03 04:27:07;;;;;;;9.60;8.40;;;;;;;11.45;86.48;101083.30;105912;278;38259;-71
2023/09/03 04:29:41;;;;;;;9.30;8.00;;;;;;;11.51;86.63;101081.71;105485;278;39504;-71
2023/09/03 04:32:14;;;;;;;11.50;9.20;;;;;;;11.58;86.95;101083.41;105923;278;38555;-71
2023/09/03 04:34:48;;;;;;;13.40;9.30;;;;;;;11.67;87.13;101087.69;104837;278;898324;-71
2023/09/03 04:37:22;;;;;;;12.30;9.60;;;;;;;11.76;87.59;101087.42;105916;278;40208;-71
2023/09/03 04:39:56;;;;;;;11.80;9.30;;;;;;;11.87;87.85;101086.21;105923;278;39457;-71
2023/09/03 04:42:30;;;;;;;11.70;8.00;;;;;;;11.97;87.93;101087.30;105455;278;38506;-71
2023/09/03 04:45:05;;;;;;;10.00;8.60;;;;;;;12.10;88.05;101091.24;105466;281;38577;-71
2023/09/03 04:47:40;;;;;;;10.40;8.60;;;;;;;12.22;88.25;101095.42;105944;278;38998;-71
2023/09/03 04:50:14;;;;;;;17.10;9.50;;;;;;;12.31;88.37;101097.38;105492;278;38616;-71
2023/09/03 04:52:49;;;;;;;11.50;9.20;;;;;;;12.39;88.41;101096.92;105941;278;38373;-71
2023/09/03 04:55:23;;;;;;;14.40;9.50;;;;;;;12.49;88.40;101096.05;105258;278;38513;-71
2023/09/03 04:57:57;;;;;;;12.20;9.00;;;;;;;12.57;88.43;101098.04;105456;278;38239;-71
2023/09/03 05:00:32;;;;;;;11.10;8.90;;;;;;;12.65;88.59;101099.00;105462;278;39538;-71
2023/09/03 05:03:07;;;;;;;10.70;8.90;;;;;;;12.74;88.83;101099.20;105932;278;39592;-71
2023/09/03 05:05:44;;;;;;;12.00;9.30;;;;;;;12.84;88.83;101094.14;105516;278;38782;-71
2023/09/03 05:08:18;;;;;;;11.60;9.40;;;;;;;12.93;88.78;101095.75;105920;278;38882;-71
2023/09/03 05:10:52;;;;;;;9.60;8.50;;;;;;;13.00;88.72;101093.56;105475;278;39393;-72
2023/09/03 05:13:27;;;;;;;11.10;9.20;;;;;;;13.05;88.58;101089.51;105909;278;39694;-72
2023/09/03 05:16:01;;;;;;;12.50;8.70;;;;;;;13.10;88.69;101090.20;105244;276;39569;-72
2023/09/03 05:18:35;;;;;;;11.90;9.00;;;;;;;13.17;88.68;101089.24;105933;278;38595;-72
2023/09/03 05:21:12;;;;;;;10.80;9.40;;;;;;;13.23;88.61;101088.89;105891;278;39992;-72
2023/09/03 05:23:46;;;;;;;11.30;9.60;;;;;;;13.26;88.39;101086.68;105482;278;38364;-71
2023/09/03 05:26:20;;;;;;;13.80;9.80;;;;;;;13.28;88.28;101089.73;105437;278;38562;-71
2023/09/03 05:28:54;;;;;;;12.80;9.50;;;;;;;13.31;88.51;101089.48;105932;278;38235;-70
2023/09/03 05:31:30;;;;;;;10.90;9.70;;;;;;;13.38;88.73;101106.35;105467;278;38518;-70
2023/09/03 05:34:04;;;;;;;12.90;10.30;;;;;;;13.57;90.45;101105.09;105492;278;38834;-71
2023/09/03 05:36:38;;;;;;;11.80;9.90;;;;;;;13.99;95.73;101104.66;105431;278;39418;-71
2023/09/03 05:39:12;;;;;;;12.80;10.40;;;;;;;14.62;99.40;101100.48;105501;278;38243;-71
2023/09/03 05:41:46;;;;;;;12.10;10.80;;;;;;;15.64;100.00;101099.38;105910;278;39679;-71
2023/09/03 05:44:19;;;;;;;13.30;11.80;;;;;;;16.75;96.08;101094.42;105945;278;40018;-71
2023/09/03 05:46:53;;;;;;;12.70;11.40;;;;;;;17.55;88.41;101096.48;105909;278;38257;-71
2023/09/03 05:49:27;;;;;;;13.50;11.10;;;;;;;18.21;84.20;101099.07;105919;278;38750;-72
2023/09/03 05:52:01;;;;;;;12.30;10.70;;;;;;;19.02;80.69;101106.48;105501;278;39658;-72
2023/09/03 05:54:35;;;;;;;11.60;10.40;;;;;;;19.63;76.76;101109.90;105522;278;38232;-72
2023/09/03 05:57:09;;;;;;;11.90;10.70;;;;;;;19.82;73.22;101107.30;105940;278;38767;-72
2023/09/03 05:59:43;;;;;;;11.30;10.20;;;;;;;19.88;71.31;101103.88;105908;278;39007;-72
2023/09/03 06:02:17;;;;;;;13.50;10.10;;;;;;;20.15;70.79;101102.10;105514;278;38636;-72
2023/09/03 06:04:53;;;;;;;13.50;10.40;;;;;;;20.85;70.81;101101.94;105510;278;38502;-72
2023/09/03 06:07:27;;;;;;;10.40;9.40;;;;;;;21.72;69.35;101097.74;105909;278;38285;-72
2023/09/03 06:10:01;;;;;;;9.80;8.70;;;;;;;22.55;66.21;101097.22;105519;278;39651;-72
2023/09/03 06:12:35;;;;;;;9.20;8.20;;;;;;;23.22;62.24;101105.73;105515;277;38672;-72
2023/09/03 06:15:11;;;;;;;9.80;8.00;;;;;;;23.76;59.62;101106.89;105494;278;38238;-72
2023/09/03 06:17:49;;;;;;;9.30;7.90;;;;;;;23.94;57.36;101112.19;105385;278;173847;-72
2023/09/03 06:20:23;;;;;;;8.70;7.70;;;;;;;23.89;56.63;101117.27;104844;278;887730;-72
2023/09/03 06:22:57;;;;;;;8.40;7.50;;;;;;;23.91;55.45;101116.35;105907;278;38579;-72
2023/09/03 06:25:31;;;;;;;8.60;7.30;;;;;;;23.71;54.51;101110.73;105569;278;39952;-72
2023/09/03 06:28:05;;;;;;;8.60;7.70;;;;;;;23.33;55.19;101112.30;105472;278;39450;-72
2023/09/03 06:30:39;;;;;;;10.30;7.60;;;;;;;22.88;55.49;101111.98;105911;278;38836;-72
2023/09/03 06:33:15;;;;;;;8.30;6.90;;;;;;;22.42;55.62;101118.66;105970;278;38306;-73
2023/09/03 06:35:49;;;;;;;7.40;6.40;;;;;;;22.05;56.38;101119.65;105397;278;171405;-73
2023/09/03 06:38:22;;;;;;;8.20;6.20;;;;;;;21.75;56.53;101122.02;105930;278;39864;-72
2023/09/03 06:40:56;;;;;;;7.30;6.10;;;;;;;21.46;56.46;101122.73;105915;278;39632;-72
2023/09/03 06:43:30;;;;;;;6.80;6.10;;;;;;;21.20;56.99;101125.77;105513;278;38813;-72
2023/09/03 06:46:04;;;;;;;6.30;5.70;;;;;;;21.01;58.30;101124.44;105508;278;38391;-72
2023/09/03 06:48:40;;;;;;;7.10;6.20;;;;;;;20.92;58.26;101127.21;105436;278;38485;-72
2023/09/03 06:51:14;;;;;;;6.00;5.30;;;;;;;20.82;58.92;101122.95;105332;278;189511;-72
2023/09/03 06:53:48;;;;;;;6.00;5.40;;;;;;;20.72;58.45;101125.36;105937;278;39938;-72
2023/09/03 06:56:23;;;;;;;6.10;5.60;;;;;;;20.62;58.66;101123.77;105475;278;38269;-73
2023/09/03 06:58:57;;;;;;;7.90;5.10;;;;;;;20.55;58.89;101126.91;105471;278;39467;-72
2023/09/03 07:01:31;;;;;;;6.30;5.40;;;;;;;20.48;58.94;101127.69;105460;278;39380;-72
2023/09/03 07:04:06;;;;;;;5.60;4.80;;;;;;;20.52;58.89;101133.98;105895;282;39900;-72
2023/09/03 07:06:40;;;;;;;5.80;4.80;;;;;;;20.46;58.59;101136.55;105430;278;38254;-72
2023/09/03 07:09:14;;;;;;;5.00;4.50;;;;;;;20.28;58.27;101132.25;105931;278;39524;-72
2023/09/03 07:11:47;;;;;;;5.60;5.00;;;;;;;20.10;58.70;101136.24;105917;278;39651;-72
2023/09/03 07:14:21;;;;;;;7.00;5.40;;;;;;;20.09;59.25;101136.13;105439;278;38258;-72
2023/09/03 07:16:55;;;;;;;7.10;5.20;;;;;;;20.28;59.43;101139.16;105303;278;173978;-72
2023/09/03 07:19:29;;;;;;;6.00;5.40;;;;;;;20.37;59.23;101140.86;105908;278;38507;-72
2023/09/03 07:22:04;;;;;;;5.40;4.90;;;;;;;20.44;59.52;101138.27;105465;278;38268;-72
2023/09/03 07:24:38;;;;;;;5.10;4.60;;;;;;;20.61;58.91;101140.67;105434;278;40188;-72
2023/09/03 07:27:12;;;;;;;6.30;4.40;;;;;;;20.67;58.88;101144.51;105416;278;39683;-72
2023/09/03 07:29:46;;;;;;;5.10;4.70;;;;;;;20.77;58.74;101145.98;105432;278;38516;-72
2023/09/03 07:32:20;;;;;;;6.90;4.30;;;;;;;20.74;57.69;101145.66;105464;278;38916;-72
2023/09/03 07:34:55;;;;;;;5.10;4.50;;;;;;;20.66;58.48;101146.02;105446;278;38662;-72
2023/09/03 07:37:32;;;;;;;5.40;4.80;;;;;;;20.86;59.59;101149.23;105458;278;38387;-72
2023/09/03 07:40:08;;;;;;;5.80;4.50;;;;;;;21.04;58.50;101144.13;105473;278;38233;-73
2023/09/03 07:42:42;;;;;;;4.90;4.40;;;;;;;21.19;58.26;101143.93;105480;278;39666;-73
2023/09/03 07:45:16;;;;;;;3.90;3.50;;;;;;;21.46;59.13;101148.46;105459;278;38362;-73
2023/09/03 07:47:50;;;;;;;5.10;4.00;;;;;;;21.69;58.29;101153.94;105467;278;38368;-73
2023/09/03 07:50:24;;;;;;;4.80;3.70;;;;;;;21.70;56.87;101154.88;105460;278;39081;-73
2023/09/03 07:52:58;;;;;;;4.50;3.90;;;;;;;21.70;57.40;101160.80;105463;275;38484;-73
2023/09/03 07:55:37;;;;;;;6.20;4.00;;;;;;;21.70;57.40;101162.70;105931;278;39689;-73
2023/09/03 07:58:11;;;;;;;4.30;3.50;;;;;;;21.70;57.11;101165.91;105448;278;38238;-73
2023/09/03 08:04:11;;;;;;;5.40;3.90;;;;;;;21.70;58.23;101170.36;105363;277;40223;-72
2023/09/03 08:06:45;;;;;;;4.60;4.00;;;;;;;21.73;57.78;101169.56;105399;277;39515;-73
2023/09/03 08:09:23;;;;;;;4.50;3.70;;;;;;;21.75;57.52;101171.01;105685;266;38433;-73
2023/09/03 08:11:57;;;;;;;5.80;3.90;;;;;;;21.80;57.12;101164.65;105639;276;39920;-73
2023/09/03 08:14:32;;;;;;;4.10;3.80;;;;;;;21.93;58.14;101161.05;105681;277;38257;-73
2023/09/03 08:17:21;;;;;;;4.30;3.90;;;;;;;22.19;58.20;101160.23;105674;276;38359;-73
2023/09/03 08:19:57;;;;;;;4.40;3.60;;;;;;;22.92;58.70;101160.34;105714;276;38659;-71
2023/09/03 08:22:31;;;;;;;4.60;3.70;;;;;;;23.27;56.64;101163.72;105540;276;39400;-76
2023/09/03 08:25:09;;;;;;;4.10;3.30;;;;;;;23.30;54.93;101165.61;105396;278;38834;-75
2023/09/03 08:27:44;;;;;;;;;;;;;;;23.50;53.67;101170.62;105807;276;38466;-75
2023/09/03 08:30:18;;;;;;;4.50;3.70;;;;;;;23.72;53.03;101169.78;105654;276;187753;-71
2023/09/03 08:32:52;;;;;;;4.40;3.60;;;;;;;24.02;53.55;101166.62;105745;276;38600;-71
2023/09/03 08:35:29;;;;;;;5.60;3.50;;;;;;;24.58;52.72;101161.82;105723;276;38197;-70
2023/09/03 08:38:04;;;;;;;5.00;3.50;;;;;;;25.36;51.26;101153.65;105744;276;38311;-70
2023/09/03 08:40:43;;;;;;;3.40;3.10;;;;;;;26.09;49.45;101152.92;105727;276;38795;-71
2023/09/03 08:43:20;;;;;;;3.90;3.00;;;;;;;26.23;46.94;101150.53;105754;276;40256;-71
2023/09/03 08:46:01;;;;;;;5.10;3.00;;;;;;;26.14;47.71;101153.42;105741;276;38478;-71
2023/09/03 08:48:35;;;;;;;4.00;2.90;;;;;;;26.06;47.54;101154.19;105703;276;38823;-72
2023/09/03 08:51:09;;;;;;;2.90;2.70;;;;;;;25.92;47.37;101154.55;105695;276;39712;-72
2023/09/03 08:53:43;;;;;;;3.50;3.20;;;;;;;25.73;47.75;101155.16;105698;276;39490;-72
2023/09/03 08:56:17;;;;;;;4.80;3.10;;;;;;;25.65;47.77;101151.80;106176;276;38257;-71
2023/09/03 08:58:51;;;;;;;3.80;3.10;;;;;;;25.59;47.42;101154.00;105743;276;39938;-72
2023/09/03 09:01:25;;;;;;;4.00;2.90;;;;;;;25.46;48.50;101157.40;105700;276;38836;-71
2023/09/03 09:04:00;;;;;;;3.10;2.70;;;;;;;25.28;48.51;101154.73;105702;276;38263;-70
2023/09/03 09:06:35;;;;;;;3.70;2.90;;;;;;;25.06;47.34;101155.61;105090;276;884560;-72
2023/09/03 09:09:11;;;;;;;3.20;2.80;;;;;;;24.85;48.06;101155.94;106142;276;40442;-72
2023/09/03 09:11:50;;;;;;;3.30;3.00;;;;;;;24.65;48.22;101163.18;105404;278;38847;-73
2023/09/03 09:14:27;;;;;;;4.70;3.00;;;;;;;24.50;48.85;101163.20;105729;276;38661;-73
2023/09/03 09:17:02;;;;;;;3.30;2.80;;;;;;;24.36;49.65;101166.11;105733;276;38506;-72
2023/09/03 09:19:40;;;;;;;3.50;2.90;;;;;;;24.28;51.16;101159.84;105735;276;38686;-73
2023/09/03 09:22:15;;;;;;;4.20;2.90;;;;;;;24.14;50.88;101159.91;106143;276;38324;-75
2023/09/03 09:24:51;;;;;;;3.90;3.20;;;;;;;23.97;50.76;101159.86;105417;276;38270;-76
2023/09/03 09:27:26;;;;;;;5.30;3.80;;;;;;;24.04;51.07;101158.46;105728;276;38352;-75
2023/09/03 09:30:11;;;;;;;3.00;2.80;;;;;;;24.33;50.80;101154.60;105707;276;38837;-74
2023/09/03 09:32:48;;;;;;;3.20;2.70;;;;;;;24.78;49.67;101150.98;105759;276;39416;-73
2023/09/03 09:35:31;;;;;;;3.20;2.90;;;;;;;25.33;48.88;101154.33;105711;276;38260;-74
2023/09/03 09:38:10;;;;;;;3.00;2.70;;;;;;;25.88;49.21;101153.89;105724;276;38273;-75
2023/09/03 09:40:44;;;;;;;3.50;2.50;;;;;;;26.31;47.10;101155.02;105536;276;903967;-71
2023/09/03 09:43:19;;;;;;;4.20;2.50;;;;;;;26.39;46.24;101156.88;105699;276;38424;-73
2023/09/03 09:45:53;;;;;;;2.90;2.30;;;;;;;26.47;46.10;101157.92;105624;276;171244;-73
2023/09/03 09:48:27;;;;;;;2.40;2.10;;;;;;;26.44;45.34;101158.77;105701;276;38786;-74
2023/09/03 09:51:01;;;;;;;2.50;2.30;;;;;;;26.36;45.76;101159.51;106175;276;38393;-74
2023/09/03 09:53:35;;;;;;;2.60;2.20;;;;;;;26.24;44.44;101165.40;105687;276;38949;-73
2023/09/03 09:56:12;;;;;;;2.60;2.30;;;;;;;26.02;44.34;101163.38;105704;276;39385;-73
2023/09/03 09:58:46;;;;;;;2.50;2.00;;;;;;;25.75;44.98;101155.55;105515;276;38702;-73
2023/09/03 10:01:20;;;;;;;3.00;2.00;;;;;;;25.63;45.14;101150.34;105453;276;38272;-72
2023/09/03 10:03:54;;;;;;;3.70;2.10;;;;;;;25.47;45.24;101149.67;105692;276;38240;-72
2023/09/03 10:06:28;;;;;;;2.40;2.20;;;;;;;25.43;46.48;101154.63;105455;276;38681;-71
2023/09/03 10:09:02;;;;;;;3.20;2.10;;;;;;;25.46;45.75;101157.59;105698;276;38472;-70
2023/09/03 10:11:36;;;;;;;10.30;3.20;;;;;;;25.34;45.57;101150.77;105745;276;38448;-70
2023/09/03 10:14:12;;;;;;;3.90;2.20;;;;;;;25.23;46.44;101148.70;106031;276;173892;-74
2023/09/03 10:16:46;;;;;;;2.80;2.40;;;;;;;25.06;46.35;101145.69;105687;276;38235;-74
2023/09/03 10:19:21;;;;;;;2.80;2.30;;;;;;;24.96;46.96;101145.17;105692;276;38228;-74
2023/09/03 10:21:56;;;;;;;3.00;2.30;;;;;;;24.85;46.49;101147.92;106158;276;39147;-75
2023/09/03 10:24:40;;;;;;;2.30;2.00;;;;;;;24.62;46.55;101147.89;105480;278;38243;-74
2023/09/03 10:27:21;;;;;;;2.50;1.70;;;;;;;24.36;46.27;101146.71;106147;276;38506;-74
2023/09/03 10:29:58;;;;;;;1.70;1.60;;;;;;;24.37;47.45;101142.29;105465;276;38528;-74
2023/09/03 10:32:39;;;;;;;2.20;1.70;;;;;;;24.50;46.74;101142.50;105706;276;38425;-73
2023/09/03 10:35:16;;;;;;;2.40;1.40;;;;;;;24.55;46.58;101139.92;105446;276;39450;-71
2023/09/03 10:37:51;;;;;;;2.60;1.40;;;;;;;24.63;46.18;101136.20;106161;276;39275;-72
2023/09/03 10:40:28;;;;;;;2.20;1.50;;;;;;;24.74;45.67;101139.61;105606;276;173827;-71
2023/09/03 10:43:35;;;;;;;1.40;1.30;;;;;;;24.70;44.60;101140.04;105717;276;38894;-71
2023/09/03 10:46:09;;;;;;;2.70;1.50;;;;;;;24.66;44.32;101141.86;105637;276;39824;-71
2023/09/03 10:48:43;;;;;;;1.50;1.10;;;;;;;24.71;45.74;101141.95;105716;276;38475;-70
2023/09/03 10:51:17;;;;;;;1.30;1.10;;;;;;;24.80;45.23;101146.52;106160;276;38382;-73
2023/09/03 10:53:51;;;;;;;1.60;1.30;;;;;;;24.76;44.78;101142.45;105274;276;171434;-73
2023/09/03 10:56:25;;;;;;;1.30;1.20;;;;;;;24.81;45.72;101141.42;105745;276;38403;-73
2023/09/03 10:59:02;;;;;;;1.50;1.10;;;;;;;24.94;45.59;101138.70;105778;276;38886;-73
2023/09/03 11:01:36;;;;;;;2.00;1.40;;;;;;;24.97;43.93;101139.37;105785;276;38771;-74
2023/09/03 11:04:10;;;;;;;2.00;1.20;;;;;;;24.94;45.07;101134.06;105728;276;38367;-74
2023/09/03 11:06:44;;;;;;;1.30;1.20;;;;;;;24.98;43.57;101143.61;105727;276;38256;-73
2023/09/03 11:09:27;;;;;;;1.40;1.30;;;;;;;24.86;44.78;101141.01;105754;276;38491;-73
2023/09/03 11:12:07;;;;;;;1.20;1.10;;;;;;;24.93;45.50;101131.52;105630;276;173836;-73
2023/09/03 11:14:41;;;;;;;1.80;1.50;;;;;;;24.97;46.26;101133.65;105766;276;38196;-74
2023/09/03 11:17:16;;;;;;;1.40;1.30;;;;;;;25.03;46.40;101132.41;105769;276;39629;-74
2023/09/03 11:19:49;;;;;;;3.60;2.10;;;;;;;24.87;45.49;101139.12;105497;278;39400;-74
2023/09/03 11:22:23;;;;;;;1.60;1.30;;;;;;;24.60;45.15;101138.95;105992;277;39958;-73
2023/09/03 11:24:57;;;;;;;1.90;1.60;;;;;;;24.36;45.27;101139.53;105154;277;638745;-73
2023/09/03 11:27:31;;;;;;;1.50;1.30;;;;;;;24.24;45.82;101136.10;105262;279;173986;-72
2023/09/03 11:30:11;;;;;;;2.00;1.50;;;;;;;24.22;45.48;101135.77;105474;277;38375;-72
2023/09/03 11:32:44;;;;;;;3.00;1.60;;;;;;;24.25;45.49;101142.45;105358;277;40110;-72
2023/09/03 11:35:18;;;;;;;1.60;1.40;;;;;;;24.26;45.21;101139.30;105538;278;38457;-73
2023/09/03 11:37:52;;;;;;;2.30;1.50;;;;;;;24.28;45.37;101135.94;105950;277;38263;-73
2023/09/03 11:40:29;;;;;;;1.60;1.50;;;;;;;24.20;44.88;101138.00;105482;277;38784;-73
2023/09/03 11:43:03;;;;;;;2.00;1.50;;;;;;;24.00;45.24;101137.01;105521;278;38657;-73
2023/09/03 11:45:37;;;;;;;2.00;1.50;;;;;;;23.90;45.55;101135.11;105980;277;39915;-73
2023/09/03 11:48:11;;;;;;;2.60;1.40;;;;;;;23.95;45.98;101136.15;105932;277;38560;-72
2023/09/03 11:50:45;;;;;;;2.30;1.70;;;;;;;24.08;46.31;101132.58;105959;277;39867;-72
2023/09/03 11:53:19;;;;;;;3.70;1.70;;;;;;;24.26;46.84;101128.23;105475;277;38413;-72
2023/09/03 11:55:54;;;;;;;1.70;1.60;;;;;;;24.44;46.56;101131.56;105941;278;38967;-72
2023/09/03 11:58:29;;;;;;;2.30;2.10;;;;;;;24.37;45.17;101133.92;105500;277;39888;-73
2023/09/03 12:01:03;;;;;;;2.40;1.70;;;;;;;24.22;45.35;101136.75;105978;277;39543;-72